createdAt,value
2018-11-04T00:00:02.882Z,3.6
2018-11-04T00:05:05.533Z,3.7
2018-11-04T00:10:15.887Z,3.7
2018-11-04T00:15:02.404Z,3.7
2018-11-04T00:20:07.729Z,3.8
2018-11-04T00:25:03.041Z,3.8
2018-11-04T00:30:03.299Z,3.8
2018-11-04T00:35:15.211Z,3.8
2018-11-04T00:40:03.092Z,3.8
2018-11-04T00:45:07.517Z,3.9
2018-11-04T00:50:03.062Z,3.9
2018-11-04T00:55:08.349Z,4.2
2018-11-04T01:00:05.122Z,4.3
2018-11-04T01:05:12.924Z,4.4
2018-11-04T01:10:02.588Z,4.4
2018-11-04T01:15:10.391Z,4.6
2018-11-04T01:20:07.809Z,4.7
2018-11-04T01:25:08.261Z,4.9
2018-11-04T01:30:02.556Z,4.9
2018-11-04T01:35:02.939Z,5.1
2018-11-04T01:40:02.639Z,5.2
2018-11-04T01:45:05.397Z,5.5
2018-11-04T01:50:05.163Z,5.6
2018-11-04T01:55:02.876Z,5.6
2018-11-04T02:00:03.111Z,5.7
2018-11-04T02:05:07.439Z,5.8
2018-11-04T02:10:13.226Z,6
2018-11-04T02:15:02.383Z,6
2018-11-04T02:20:02.786Z,6.1
2018-11-04T02:25:08.172Z,6.2
2018-11-04T02:30:25.132Z,6.3
2018-11-04T02:35:15.009Z,6.3
2018-11-04T02:40:02.724Z,6.3
2018-11-04T02:45:10.605Z,6.5
2018-11-04T02:50:12.925Z,6.7
2018-11-04T02:55:25.800Z,6.9
2018-11-04T03:00:05.534Z,7
2018-11-04T03:05:08.348Z,7
2018-11-04T03:10:08.099Z,7.1
2018-11-04T03:15:05.813Z,7.2
2018-11-04T03:20:03.221Z,7.1
2018-11-04T03:25:13.393Z,7.3
2018-11-04T03:30:02.633Z,7.2
2018-11-04T03:35:02.893Z,7.3
2018-11-04T03:40:10.570Z,7.4
2018-11-04T03:45:08.283Z,7.4
2018-11-04T03:50:05.378Z,7.5
2018-11-04T03:55:08.112Z,7.6
2018-11-04T04:00:31.192Z,7.7
2018-11-04T04:05:02.484Z,7.7
2018-11-04T04:10:05.798Z,7.8
2018-11-04T04:15:02.480Z,7.8
2018-11-04T04:20:02.901Z,7.9
2018-11-04T04:25:05.677Z,8
2018-11-04T04:30:05.460Z,8
2018-11-04T04:35:05.706Z,8.1
2018-11-04T04:40:02.529Z,8.1
2018-11-04T04:45:02.533Z,8.2
2018-11-04T04:50:05.361Z,8.2
2018-11-04T04:55:08.130Z,8.2
2018-11-04T05:00:12.538Z,8.3
2018-11-04T05:05:02.694Z,8.3
2018-11-04T05:10:04.952Z,8.3
2018-11-04T05:15:02.635Z,8.3
2018-11-04T05:20:08.049Z,8.4
2018-11-04T05:25:05.770Z,8.4
2018-11-04T05:30:03.025Z,8.4
2018-11-04T05:35:20.979Z,8.5
2018-11-04T05:40:20.587Z,8.5
2018-11-04T05:45:05.652Z,8.5
2018-11-04T05:50:02.879Z,8.5
2018-11-04T05:55:18.324Z,8.6
2018-11-04T06:00:02.594Z,8.6
2018-11-04T06:05:05.374Z,8.7
2018-11-04T06:10:05.564Z,8.6
2018-11-04T06:15:03.338Z,8.7
2018-11-04T06:20:02.693Z,8.7
2018-11-04T06:25:18.174Z,8.7
2018-11-04T06:30:10.041Z,8.8
2018-11-04T06:35:07.870Z,8.8
2018-11-04T06:40:10.314Z,8.8
2018-11-04T06:45:18.238Z,8.9
2018-11-04T06:50:02.500Z,8.9
2018-11-04T06:55:02.774Z,8.9
2018-11-04T07:00:05.531Z,9
2018-11-04T07:05:10.890Z,9
2018-11-04T07:10:05.133Z,9.1
2018-11-04T07:15:28.121Z,9.1
2018-11-04T07:20:07.728Z,9.1
2018-11-04T07:25:07.879Z,9.2
2018-11-04T07:30:08.297Z,9.2
2018-11-04T07:35:27.805Z,9.2
2018-11-04T07:40:02.504Z,9.3
2018-11-04T07:45:08.100Z,9.3
2018-11-04T07:50:17.573Z,9.4
2018-11-04T07:55:33.000Z,9.5
2018-11-04T08:00:13.361Z,9.5
2018-11-04T08:05:12.952Z,9.5
2018-11-04T08:10:05.115Z,9.6
2018-11-04T08:15:20.785Z,9.6
2018-11-04T08:20:05.703Z,9.7
2018-11-04T08:25:02.395Z,9.7
2018-11-04T08:30:20.353Z,9.8
2018-11-04T08:35:08.050Z,9.9
2018-11-04T08:40:18.009Z,9.9
2018-11-04T08:45:03.247Z,9.9
2018-11-04T08:50:05.099Z,10
2018-11-04T08:55:03.075Z,10
2018-11-04T09:00:22.650Z,10.1
2018-11-04T09:05:07.737Z,10.2
2018-11-04T09:10:15.249Z,10.2
2018-11-04T09:15:15.880Z,10.3
2018-11-04T09:20:10.762Z,10.4
2018-11-04T09:25:08.050Z,10.4
2018-11-04T09:30:23.529Z,10.5
2018-11-04T09:35:30.511Z,10.5
2018-11-04T09:40:05.062Z,10.6
2018-11-04T09:45:02.826Z,10.6
2018-11-04T09:50:30.822Z,10.7
2018-11-04T09:55:08.183Z,10.7
2018-11-04T10:00:07.621Z,10.8
2018-11-04T10:05:10.431Z,10.8
2018-11-04T10:10:10.719Z,10.8
2018-11-04T10:15:05.003Z,10.9
2018-11-04T10:20:02.962Z,10.9
2018-11-04T10:25:05.561Z,10.9
2018-11-04T10:30:05.396Z,11
2018-11-04T10:35:07.460Z,11
2018-11-04T10:40:02.416Z,11
2018-11-04T10:45:13.146Z,11.1
2018-11-04T10:50:05.055Z,11.2
2018-11-04T10:55:07.706Z,11.2
2018-11-04T11:00:08.091Z,11.2
2018-11-04T11:05:03.295Z,11.2
2018-11-04T11:10:04.977Z,11.2
2018-11-04T11:15:05.222Z,11.3
2018-11-04T11:20:12.688Z,11.2
2018-11-04T11:25:02.921Z,11.3
2018-11-04T11:30:25.936Z,11.2
2018-11-04T11:35:10.710Z,11.2
2018-11-04T11:40:02.493Z,11.2
2018-11-04T11:45:18.129Z,11.3
2018-11-04T11:50:12.597Z,11.3
2018-11-04T11:55:10.419Z,11.3
2018-11-04T12:00:25.369Z,11.3
2018-11-04T12:05:05.447Z,11.3
2018-11-04T12:10:05.843Z,11.3
2018-11-04T12:15:22.727Z,11.3
2018-11-04T12:20:30.890Z,11.4
2018-11-04T12:25:03.160Z,11.4
2018-11-04T12:30:02.427Z,11.4
2018-11-04T12:35:02.714Z,11.4
2018-11-04T12:40:07.665Z,11.4
2018-11-04T12:45:07.890Z,11.4
2018-11-04T12:50:13.282Z,11.5
2018-11-04T12:55:28.291Z,11.4
2018-11-04T13:00:05.043Z,11.4
2018-11-04T13:05:25.580Z,11.4
2018-11-04T13:10:03.345Z,11.4
2018-11-04T13:15:18.130Z,11.2
2018-11-04T13:20:17.702Z,11.3
2018-11-04T13:25:02.771Z,11.3
2018-11-04T13:30:25.861Z,11.3
2018-11-04T13:35:03.120Z,11.3
2018-11-04T13:40:10.456Z,11.2
2018-11-04T13:45:13.336Z,11.3
2018-11-04T13:50:05.185Z,11.3
2018-11-04T13:55:08.010Z,11.3
2018-11-04T14:05:02.389Z,11.3
2018-11-04T14:10:05.802Z,11.2
2018-11-04T14:15:05.082Z,11.2
2018-11-04T14:20:02.470Z,11.2
2018-11-04T14:25:07.889Z,11.2
2018-11-04T14:30:03.241Z,11.2
2018-11-04T14:35:05.040Z,11.1
2018-11-04T14:40:08.090Z,11.1
2018-11-04T14:45:18.359Z,11.1
2018-11-04T14:50:22.829Z,11.1
2018-11-04T14:55:20.746Z,11.1
2018-11-04T15:00:08.059Z,11.1
2018-11-04T15:05:20.989Z,11
2018-11-04T15:10:15.365Z,11
2018-11-04T15:15:08.107Z,11
2018-11-04T15:20:17.673Z,11
2018-11-04T15:25:10.275Z,11
2018-11-04T15:30:10.322Z,11
2018-11-04T15:35:10.049Z,11
2018-11-04T15:40:07.934Z,11
2018-11-04T15:45:14.986Z,11
2018-11-04T15:50:08.310Z,11
2018-11-04T15:55:10.188Z,11
2018-11-04T16:00:12.537Z,11
2018-11-04T16:05:02.863Z,11
2018-11-04T16:10:35.440Z,10.9
2018-11-04T16:15:05.450Z,10.9
2018-11-04T16:20:30.593Z,10.9
2018-11-04T16:25:02.835Z,10.9
2018-11-04T16:30:10.674Z,10.9
2018-11-04T16:35:02.379Z,10.9
2018-11-04T16:40:10.725Z,10.8
2018-11-04T16:45:28.492Z,10.9
2018-11-04T16:50:07.894Z,10.9
2018-11-04T16:55:10.645Z,10.9
2018-11-04T17:00:08.280Z,10.9
2018-11-04T17:05:13.198Z,10.9
2018-11-04T17:10:12.551Z,10.8
2018-11-04T17:15:05.366Z,10.9
2018-11-04T17:20:13.286Z,10.9
2018-11-04T17:25:07.558Z,10.9
2018-11-04T17:30:02.853Z,10.9
2018-11-04T17:35:08.293Z,10.9
2018-11-04T17:40:05.632Z,10.9
2018-11-04T17:45:05.400Z,10.9
2018-11-04T17:55:10.471Z,10.9
2018-11-04T18:00:05.356Z,10.9
2018-11-04T18:05:18.366Z,10.8
2018-11-04T18:10:05.833Z,10.9
2018-11-04T18:15:10.146Z,10.9
2018-11-04T18:20:02.463Z,10.9
2018-11-04T18:25:13.004Z,10.9
2018-11-04T18:30:10.273Z,10.9
2018-11-04T18:35:15.016Z,10.9
2018-11-04T18:40:02.722Z,11
2018-11-04T18:45:23.595Z,11
2018-11-04T18:50:05.371Z,11
2018-11-04T18:55:10.062Z,11
2018-11-04T19:00:05.819Z,11
2018-11-04T19:05:38.172Z,11
2018-11-04T19:10:10.877Z,11
2018-11-04T19:15:20.279Z,11
2018-11-04T19:20:02.621Z,11
2018-11-04T19:25:05.535Z,11.1
2018-11-04T19:30:05.328Z,11.1
2018-11-04T19:35:05.582Z,11.1
2018-11-04T19:40:05.821Z,11.1
2018-11-04T19:50:03.324Z,11.1
2018-11-04T19:55:20.330Z,11.1
2018-11-04T20:00:15.344Z,11.1
2018-11-04T20:05:05.495Z,11.1
2018-11-04T20:10:31.075Z,11.1
2018-11-04T20:15:12.634Z,11.1
2018-11-04T20:20:03.155Z,11.1
2018-11-04T20:25:15.373Z,11.1
2018-11-04T20:30:17.819Z,11.1
2018-11-04T20:35:05.460Z,11.1
2018-11-04T20:40:08.230Z,11.1
2018-11-04T20:45:05.169Z,11.1
2018-11-04T20:50:02.902Z,11.1
2018-11-04T20:55:05.780Z,11.1
2018-11-04T21:00:10.319Z,11.1
2018-11-04T21:05:02.711Z,11.1
2018-11-04T21:10:02.596Z,11.1
2018-11-04T21:15:05.293Z,11.1
2018-11-04T21:20:02.872Z,11.1
2018-11-04T21:25:13.372Z,11.1
2018-11-04T21:30:05.673Z,11.1
2018-11-04T21:35:25.207Z,11.1
2018-11-04T21:40:23.466Z,11.2
2018-11-04T21:45:10.772Z,11.1
2018-11-04T21:50:15.745Z,11.2
2018-11-04T21:55:25.395Z,11.1
2018-11-04T22:00:07.417Z,11.1
2018-11-04T22:05:10.188Z,11.2
2018-11-04T22:10:13.138Z,11.2
2018-11-04T22:15:02.343Z,11.2
2018-11-04T22:20:12.875Z,11.2
2018-11-04T22:25:05.668Z,11.2
2018-11-04T22:30:08.091Z,11.2
2018-11-04T22:35:05.754Z,11.2
2018-11-04T22:40:05.060Z,11.2
2018-11-04T22:50:12.590Z,11.2
2018-11-04T22:55:05.178Z,11.2
2018-11-04T23:00:05.104Z,11.2
2018-11-04T23:05:02.842Z,11.2
2018-11-04T23:10:02.566Z,11.2
2018-11-04T23:15:08.145Z,11.2
2018-11-04T23:20:35.404Z,11.2
2018-11-04T23:25:02.612Z,11.2
2018-11-04T23:30:33.230Z,11.2
2018-11-04T23:35:05.062Z,11.2
2018-11-04T23:40:02.804Z,11.2
2018-11-04T23:45:03.061Z,11.2
2018-11-04T23:50:03.393Z,11.2
2018-11-04T23:55:20.295Z,11.2
